Time;durP1;ratioP1;P1;durP2;ratioP2;P2;SDS_P1;SDS_P2;PMS_P1;PMS_P2;Temp;Humidity;BMP_temperature;BMP_pressure;BME280_temperature;BME280_humidity;BME280_pressure;Samples;Min_cycle;Max_cycle;Signal;HPM_P1;HPM_P2
2022/07/25 00:01:43;;;;;;;12.10;11.23;;;24.70;82.40;;;;;;10504976;28;20316;-81
2022/07/25 00:06:45;;;;;;;12.87;11.67;;;24.60;83.10;;;;;;10496395;28;20197;-82
2022/07/25 00:11:49;;;;;;;12.43;11.40;;;24.60;82.80;;;;;;10505671;28;20224;-82
2022/07/25 00:16:51;;;;;;;11.70;10.80;;;24.60;83.20;;;;;;10505516;28;20225;-82
2022/07/25 00:21:53;;;;;;;12.03;11.03;;;24.50;83.50;;;;;;10506579;28;20590;-83
2022/07/25 00:26:57;;;;;;;14.50;12.83;;;24.40;83.10;;;;;;10518022;28;20197;-81
2022/07/25 00:31:59;;;;;;;12.93;11.73;;;24.40;83.20;;;;;;10508655;28;20216;-82
2022/07/25 00:37:01;;;;;;;13.57;12.57;;;24.40;82.80;;;;;;10501312;28;20276;-81
2022/07/25 00:42:05;;;;;;;12.47;11.47;;;24.40;83.20;;;;;;10503365;28;20695;-82
2022/07/25 00:47:07;;;;;;;12.97;11.93;;;24.30;83.50;;;;;;10503847;28;20185;-81
2022/07/25 00:52:09;;;;;;;12.70;11.80;;;24.30;82.80;;;;;;10501775;28;20213;-82
2022/07/25 00:57:13;;;;;;;12.63;11.53;;;24.20;83.50;;;;;;10500473;28;20220;-82
2022/07/25 01:02:15;;;;;;;10.87;10.07;;;24.20;83.80;;;;;;10448811;22;20304;-80
2022/07/25 01:07:17;;;;;;;12.47;11.57;;;24.10;83.30;;;;;;10438255;28;20741;-81
2022/07/25 01:12:21;;;;;;;11.90;10.83;;;24.10;82.90;;;;;;10427084;28;20303;-81
2022/07/25 01:17:23;;;;;;;11.97;11.17;;;24.00;84.10;;;;;;10410973;28;20253;-81
2022/07/25 01:22:26;;;;;;;12.00;11.00;;;24.00;84.10;;;;;;10452903;28;20229;-80
2022/07/25 01:27:28;;;;;;;12.03;11.20;;;24.00;84.30;;;;;;10414113;28;20217;-81
2022/07/25 01:32:30;;;;;;;11.87;10.67;;;24.00;83.70;;;;;;10430731;28;20715;-79
2022/07/25 01:37:34;;;;;;;12.20;11.30;;;24.00;83.70;;;;;;10426611;28;20245;-80
2022/07/25 01:42:36;;;;;;;12.47;11.57;;;24.00;83.80;;;;;;10421323;28;20213;-81
2022/07/25 01:47:39;;;;;;;11.67;10.87;;;23.90;83.60;;;;;;10435823;28;20292;-79
2022/07/25 01:52:43;;;;;;;13.40;12.30;;;23.90;83.50;;;;;;10433593;28;20300;-80
2022/07/25 01:57:45;;;;;;;12.83;11.93;;;23.80;84.20;;;;;;10440230;28;20213;-80
2022/07/25 02:02:47;;;;;;;12.63;11.63;;;23.80;84.80;;;;;;10429780;28;20312;-79
2022/07/25 02:07:50;;;;;;;12.20;11.20;;;23.80;84.20;;;;;;10425700;28;20194;-80
2022/07/25 02:12:52;;;;;;;12.60;11.70;;;23.70;84.30;;;;;;10434963;28;20256;-80
2022/07/25 02:17:54;;;;;;;12.37;11.17;;;23.70;84.50;;;;;;10428226;28;20225;-80
2022/07/25 02:22:58;;;;;;;12.33;11.50;;;23.70;85.10;;;;;;10443826;28;20246;-80
2022/07/25 02:28:00;;;;;;;11.90;11.10;;;23.60;84.70;;;;;;10431237;28;20201;-80
2022/07/25 02:33:02;;;;;;;13.30;12.30;;;23.60;84.80;;;;;;10422625;28;20218;-81
2022/07/25 02:38:06;;;;;;;12.30;11.50;;;23.50;85.60;;;;;;10421350;28;20217;-78
2022/07/25 02:43:09;;;;;;;12.63;11.73;;;23.50;85.30;;;;;;10398734;28;20651;-80
2022/07/25 02:48:11;;;;;;;12.87;11.90;;;23.40;85.70;;;;;;10421487;28;20230;-79
2022/07/25 02:53:14;;;;;;;12.80;11.70;;;23.40;86.10;;;;;;10420237;28;20222;-81
2022/07/25 02:58:16;;;;;;;12.70;11.37;;;23.40;86.20;;;;;;10415029;28;20225;-79
2022/07/25 03:03:18;;;;;;;12.10;11.30;;;23.40;86.50;;;;;;10408058;28;20303;-80
2022/07/25 03:08:22;;;;;;;13.40;12.50;;;23.30;85.10;;;;;;10390581;28;20194;-79
2022/07/25 03:13:24;;;;;;;12.97;11.90;;;23.30;86.20;;;;;;10412573;28;20780;-83
2022/07/25 03:18:26;;;;;;;11.60;10.70;;;23.30;85.50;;;;;;10422163;28;20222;-82
2022/07/25 03:23:30;;;;;;;12.23;11.33;;;23.20;85.60;;;;;;10413598;28;20701;-83
2022/07/25 03:28:32;;;;;;;12.10;11.30;;;23.20;85.00;;;;;;10427341;28;20653;-83
2022/07/25 03:33:34;;;;;;;12.43;11.53;;;23.20;84.90;;;;;;10403510;28;20198;-83
2022/07/25 03:38:38;;;;;;;10.93;10.13;;;23.20;84.70;;;;;;10432132;28;20221;-83
2022/07/25 03:43:40;;;;;;;11.67;10.97;;;23.10;85.50;;;;;;10404652;28;20210;-83
2022/07/25 03:48:42;;;;;;;12.23;11.23;;;23.10;84.90;;;;;;10416315;28;20308;-82
2022/07/25 03:54:03;;;;;;;12.77;11.97;;;23.10;85.80;;;;;;10413230;28;20197;-82
2022/07/25 03:59:06;;;;;;;13.20;12.20;;;23.10;85.40;;;;;;10404828;28;20232;-81
2022/07/25 04:04:09;;;;;;;12.67;11.77;;;23.10;85.00;;;;;;10424051;28;20210;-83
2022/07/25 04:09:14;;;;;;;12.90;11.70;;;23.10;84.90;;;;;;10410397;28;20210;-83
2022/07/25 04:14:16;;;;;;;13.10;12.23;;;23.10;85.10;;;;;;10426734;28;20224;-80
2022/07/25 04:19:18;;;;;;;13.20;12.20;;;23.10;84.90;;;;;;10426053;28;20226;-81
2022/07/25 04:24:22;;;;;;;13.47;12.57;;;23.10;85.50;;;;;;10434940;28;20202;-83
2022/07/25 04:29:24;;;;;;;13.90;12.90;;;23.10;86.10;;;;;;10410520;28;20252;-80
2022/07/25 04:34:26;;;;;;;14.20;13.00;;;23.10;85.50;;;;;;10425856;28;20201;-82
2022/07/25 04:39:29;;;;;;;12.47;11.57;;;23.10;85.70;;;;;;10430032;28;20248;-80
2022/07/25 04:44:31;;;;;;;12.47;11.53;;;23.20;85.60;;;;;;10438093;28;20204;-81
2022/07/25 04:49:33;;;;;;;13.07;12.17;;;23.20;85.50;;;;;;10434301;28;20708;-80
2022/07/25 04:54:37;;;;;;;12.80;11.90;;;23.20;85.70;;;;;;10431866;28;20221;-80
2022/07/25 04:59:39;;;;;;;14.97;13.57;;;23.20;86.70;;;;;;10426384;28;20241;-79
2022/07/25 05:04:41;;;;;;;13.57;12.57;;;23.20;85.90;;;;;;10417144;28;20229;-78
2022/07/25 05:09:45;;;;;;;12.73;11.83;;;23.30;87.00;;;;;;10405161;28;20245;-80
2022/07/25 05:14:47;;;;;;;15.10;13.73;;;23.30;85.60;;;;;;10403828;28;20197;-80
2022/07/25 05:19:49;;;;;;;15.23;13.67;;;23.30;86.90;;;;;;10403927;28;20250;-79
2022/07/25 05:24:53;;;;;;;14.23;13.03;;;23.40;86.40;;;;;;10393733;28;20224;-81
2022/07/25 05:29:55;;;;;;;13.07;12.17;;;23.40;86.60;;;;;;10409032;28;20221;-79
2022/07/25 05:34:57;;;;;;;14.40;13.40;;;23.50;87.90;;;;;;10421340;28;20249;-81
2022/07/25 05:40:01;;;;;;;13.90;12.83;;;23.50;86.30;;;;;;10414450;28;20309;-80
2022/07/25 05:45:04;;;;;;;14.57;13.57;;;23.60;86.60;;;;;;10394170;28;20663;-81
2022/07/25 05:50:07;;;;;;;14.30;13.40;;;23.70;86.80;;;;;;10409457;28;20694;-81
2022/07/25 05:55:12;;;;;;;14.27;13.17;;;23.70;86.60;;;;;;10393438;28;20194;-80
2022/07/25 06:00:15;;;;;;;14.10;13.10;;;23.80;86.40;;;;;;10406934;28;20222;-81
2022/07/25 06:05:17;;;;;;;14.40;13.40;;;23.90;86.70;;;;;;10394339;28;20206;-80
2022/07/25 06:10:21;;;;;;;16.03;14.23;;;23.90;86.70;;;;;;10387793;28;20257;-81
2022/07/25 06:15:23;;;;;;;15.60;14.27;;;24.00;87.20;;;;;;10381726;28;20628;-80
2022/07/25 06:20:25;;;;;;;18.30;16.70;;;24.10;86.00;;;;;;10414326;28;20698;-79
2022/07/25 06:25:29;;;;;;;15.17;14.17;;;24.20;85.50;;;;;;10414575;28;20714;-79
2022/07/25 06:30:31;;;;;;;13.50;12.60;;;24.30;86.30;;;;;;10376323;28;20221;-80
2022/07/25 06:35:33;;;;;;;16.70;15.40;;;24.40;86.00;;;;;;10402381;28;20209;-79
2022/07/25 06:40:37;;;;;;;14.40;13.20;;;24.60;86.40;;;;;;10388560;28;20240;-80
2022/07/25 06:45:39;;;;;;;14.80;13.50;;;24.80;86.00;;;;;;10380573;28;20241;-81
2022/07/25 06:50:41;;;;;;;13.93;13.00;;;25.00;84.20;;;;;;10392566;28;20613;-81
2022/07/25 06:55:44;;;;;;;13.93;12.93;;;25.20;84.50;;;;;;10413969;28;20300;-80
2022/07/25 07:00:46;;;;;;;13.20;12.20;;;25.40;83.80;;;;;;10441791;22;20237;-77
2022/07/25 07:05:49;;;;;;;12.80;11.90;;;25.50;83.20;;;;;;10474546;28;20196;-81
2022/07/25 07:10:52;;;;;;;13.83;12.90;;;25.80;82.80;;;;;;10500481;28;20231;-80
2022/07/25 07:15:54;;;;;;;14.07;12.83;;;26.00;81.90;;;;;;10488892;28;20208;-81
2022/07/25 07:20:56;;;;;;;12.03;11.20;;;26.20;80.40;;;;;;10477988;28;20225;-80
2022/07/25 07:26:00;;;;;;;14.53;13.40;;;26.50;81.00;;;;;;10465956;28;20207;-80
2022/07/25 07:31:02;;;;;;;13.90;12.90;;;26.70;80.00;;;;;;10499332;28;20247;-82
2022/07/25 07:36:04;;;;;;;13.27;12.37;;;27.10;78.10;;;;;;10497207;28;20215;-81
2022/07/25 07:41:08;;;;;;;13.50;12.60;;;27.40;78.50;;;;;;10484764;28;20228;-81
2022/07/25 07:46:11;;;;;;;14.57;13.13;;;27.60;77.50;;;;;;10484505;28;20197;-81
2022/07/25 07:51:13;;;;;;;13.50;12.50;;;28.00;76.20;;;;;;10494147;28;20225;-79
2022/07/25 07:56:18;;;;;;;19.90;14.60;;;28.20;75.90;;;;;;10462134;28;20200;-79
2022/07/25 08:01:20;;;;;;;13.87;12.90;;;28.50;75.80;;;;;;10489024;28;20231;-79
2022/07/25 08:06:22;;;;;;;14.10;13.10;;;28.80;73.40;;;;;;10479702;28;20207;-79
2022/07/25 08:11:25;;;;;;;14.80;13.63;;;29.10;73.60;;;;;;10458807;28;20656;-79
2022/07/25 08:16:27;;;;;;;15.33;14.07;;;29.50;73.60;;;;;;10470506;28;20649;-80
2022/07/25 08:21:29;;;;;;;13.40;12.40;;;29.80;71.20;;;;;;10494710;28;20240;-80
2022/07/25 08:26:35;;;;;;;13.10;12.20;;;30.30;71.90;;;;;;10441921;28;20664;-79
2022/07/25 08:31:37;;;;;;;15.03;13.73;;;30.80;69.80;;;;;;10463670;28;20217;-80
2022/07/25 08:36:40;;;;;;;13.53;12.63;;;31.30;68.50;;;;;;10455064;28;20213;-80
2022/07/25 08:41:43;;;;;;;12.70;11.80;;;32.00;67.60;;;;;;10452591;28;20232;-80
2022/07/25 08:46:46;;;;;;;13.40;12.60;;;32.50;66.00;;;;;;10435663;28;20581;-79
2022/07/25 08:51:49;;;;;;;13.23;12.27;;;33.10;63.60;;;;;;10476099;28;20224;-79
2022/07/25 08:56:53;;;;;;;12.23;11.30;;;33.50;62.60;;;;;;10469759;28;20213;-80
2022/07/25 09:01:56;;;;;;;11.33;10.60;;;33.80;59.80;;;;;;10475593;28;20266;-79
2022/07/25 09:07:00;;;;;;;12.30;11.50;;;34.20;59.10;;;;;;10475032;28;20193;-81
2022/07/25 09:12:04;;;;;;;11.27;10.37;;;34.40;57.40;;;;;;10440250;28;20296;-81
2022/07/25 09:17:07;;;;;;;12.20;11.30;;;34.70;56.80;;;;;;10473286;28;20212;-80
2022/07/25 09:22:09;;;;;;;11.80;11.00;;;35.00;56.50;;;;;;10450895;28;20714;-80
2022/07/25 09:27:13;;;;;;;11.37;10.60;;;35.10;56.30;;;;;;10451128;28;20690;-80
2022/07/25 09:32:18;;;;;;;12.33;11.33;;;35.30;54.80;;;;;;10473683;28;20679;-80
2022/07/25 09:37:26;;;;;;;11.20;10.50;;;35.40;52.40;;;;;;10474493;28;20214;-80
2022/07/25 09:42:32;;;;;;;12.27;11.37;;;35.60;53.50;;;;;;10438575;28;20224;-80
2022/07/25 09:47:36;;;;;;;11.37;10.57;;;35.90;52.70;;;;;;10479773;28;20203;-80
2022/07/25 09:52:39;;;;;;;11.20;10.30;;;36.20;52.50;;;;;;10472115;28;20240;-80
2022/07/25 09:57:44;;;;;;;12.47;10.93;;;36.40;51.70;;;;;;10498985;28;20228;-80
2022/07/25 10:03:01;;;;;;;10.97;10.27;;;36.70;50.60;;;;;;10492359;28;20607;-80
2022/07/25 10:08:07;;;;;;;12.77;11.98;;;37.20;50.80;;;;;;10488406;28;20206;-80
2022/07/25 10:13:14;;;;;;;13.73;12.63;;;37.80;49.60;;;;;;10486487;28;20968;-80
2022/07/25 10:18:18;;;;;;;12.60;11.60;;;38.60;49.10;;;;;;10469491;28;20216;-81
2022/07/25 10:23:23;;;;;;;11.48;10.68;;;39.40;47.70;;;;;;10479654;28;20719;-80
2022/07/25 10:28:37;;;;;;;10.18;9.27;;;39.80;46.00;;;;;;10476369;28;20578;-81
2022/07/25 10:33:42;;;;;;;12.18;11.38;;;39.00;46.50;;;;;;10463078;28;20231;-81
2022/07/25 10:38:45;;;;;;;12.13;10.90;;;37.90;46.40;;;;;;10490712;28;20212;-81
2022/07/25 10:43:51;;;;;;;11.83;10.83;;;36.80;47.70;;;;;;10466584;28;20231;-79
2022/07/25 10:49:01;;;;;;;12.67;11.67;;;35.70;49.40;;;;;;10478970;28;20650;-80
2022/07/25 10:54:13;;;;;;;12.13;11.33;;;34.90;50.90;;;;;;10495272;28;20253;-80
2022/07/25 10:59:26;;;;;;;10.97;10.27;;;34.30;51.50;;;;;;10465614;28;20231;-81
2022/07/25 11:04:28;;;;;;;11.47;10.77;;;33.80;52.90;;;;;;10451298;28;20209;-81
2022/07/25 11:09:31;;;;;;;10.07;9.10;;;33.30;51.80;;;;;;10456916;28;20294;-81
2022/07/25 11:14:36;;;;;;;12.23;11.27;;;33.00;52.70;;;;;;10482800;28;20335;-80
2022/07/25 11:19:38;;;;;;;9.63;8.83;;;32.90;52.70;;;;;;10462302;28;20228;-81
2022/07/25 11:24:42;;;;;;;10.70;10.00;;;32.80;52.90;;;;;;10488525;28;20201;-80
2022/07/25 11:29:45;;;;;;;9.70;9.00;;;32.70;54.10;;;;;;10477390;28;20370;-81
2022/07/25 11:34:49;;;;;;;10.53;9.80;;;32.80;54.00;;;;;;10489370;28;20310;-81
2022/07/25 11:39:52;;;;;;;10.80;10.10;;;32.80;53.00;;;;;;10465161;28;20934;-81
2022/07/25 11:44:58;;;;;;;11.37;10.57;;;32.80;54.00;;;;;;10474279;28;20744;-80
2022/07/25 11:50:02;;;;;;;13.97;12.87;;;32.80;53.20;;;;;;10456088;28;20217;-81
2022/07/25 11:55:07;;;;;;;10.17;9.57;;;32.80;53.60;;;;;;10493798;28;20205;-80
2022/07/25 12:00:17;;;;;;;10.30;9.50;;;32.80;51.50;;;;;;10464874;28;20228;-80
2022/07/25 12:05:22;;;;;;;9.43;8.83;;;32.80;50.80;;;;;;10482966;28;20288;-80
2022/07/25 12:10:32;;;;;;;8.77;8.27;;;32.80;53.40;;;;;;10493466;28;20270;-81
2022/07/25 12:15:39;;;;;;;8.80;8.30;;;32.70;48.40;;;;;;10474768;28;20201;-80
2022/07/25 12:20:43;;;;;;;8.17;7.63;;;32.80;51.20;;;;;;10483533;28;20311;-80
2022/07/25 12:25:46;;;;;;;8.60;7.90;;;32.80;50.60;;;;;;10480075;28;20629;-81
2022/07/25 12:30:50;;;;;;;10.33;8.70;;;32.90;48.70;;;;;;10447241;28;20224;-80
2022/07/25 12:35:52;;;;;;;8.87;8.27;;;33.20;48.30;;;;;;10471691;28;20286;-81
2022/07/25 12:40:55;;;;;;;9.00;8.30;;;33.50;50.30;;;;;;10485543;28;20232;-81
2022/07/25 12:45:58;;;;;;;8.90;8.30;;;33.60;50.80;;;;;;10446748;28;20583;-81
2022/07/25 12:51:00;;;;;;;10.03;9.00;;;33.40;51.80;;;;;;10478562;28;20227;-80
2022/07/25 12:56:02;;;;;;;11.20;10.07;;;33.20;51.90;;;;;;10474466;28;20204;-80
2022/07/25 13:01:06;;;;;;;9.20;8.70;;;33.10;52.00;;;;;;10507683;22;20637;-85
2022/07/25 13:06:09;;;;;;;11.30;10.50;;;33.10;52.60;;;;;;10503763;28;20220;-84
2022/07/25 13:11:11;;;;;;;10.67;9.87;;;33.20;51.60;;;;;;10515087;28;20262;-82
2022/07/25 13:16:15;;;;;;;10.30;9.60;;;33.20;52.10;;;;;;10510299;28;20220;-82
2022/07/25 13:21:17;;;;;;;9.83;9.23;;;33.40;51.10;;;;;;10517920;28;20234;-82
2022/07/25 13:26:19;;;;;;;10.23;9.50;;;33.30;52.00;;;;;;10510213;28;20254;-82
2022/07/25 13:31:23;;;;;;;9.33;8.53;;;33.20;52.60;;;;;;10519336;28;20247;-82
2022/07/25 13:36:25;;;;;;;9.53;8.80;;;33.20;53.30;;;;;;10530544;28;20204;-82
2022/07/25 13:41:28;;;;;;;9.07;8.50;;;33.20;53.80;;;;;;10519005;28;20243;-83
2022/07/25 13:46:31;;;;;;;7.63;7.13;;;33.10;51.00;;;;;;10507027;28;20203;-82
2022/07/25 13:51:33;;;;;;;8.70;8.10;;;33.10;51.10;;;;;;10527997;28;20749;-82
2022/07/25 13:56:35;;;;;;;10.43;9.63;;;33.20;49.90;;;;;;10540664;28;20204;-82
2022/07/25 14:01:39;;;;;;;8.30;7.70;;;33.20;51.00;;;;;;10529126;28;20212;-82
2022/07/25 14:06:41;;;;;;;7.73;7.23;;;33.20;51.70;;;;;;10532378;28;20203;-82
2022/07/25 14:11:43;;;;;;;9.23;8.63;;;33.20;50.70;;;;;;10512211;28;20280;-81
2022/07/25 14:16:47;;;;;;;10.83;9.47;;;33.10;49.60;;;;;;10522964;28;20229;-81
2022/07/25 14:21:49;;;;;;;9.90;9.20;;;33.10;50.40;;;;;;10519718;28;20224;-81
2022/07/25 14:26:52;;;;;;;9.80;9.10;;;33.10;49.50;;;;;;10520343;28;20621;-81
2022/07/25 14:31:56;;;;;;;10.70;9.90;;;33.20;51.50;;;;;;10499159;28;20223;-81
2022/07/25 14:36:58;;;;;;;10.33;9.53;;;33.10;51.40;;;;;;10501588;28;20540;-81
2022/07/25 14:42:01;;;;;;;12.60;10.63;;;33.00;52.20;;;;;;10509526;28;20251;-81
2022/07/25 14:47:06;;;;;;;9.77;9.13;;;33.00;53.00;;;;;;10510262;28;20307;-81
2022/07/25 14:52:08;;;;;;;10.03;9.23;;;33.00;51.90;;;;;;10500524;28;20736;-81
2022/07/25 14:57:11;;;;;;;9.53;8.90;;;32.80;52.10;;;;;;10522613;28;20674;-81
2022/07/25 15:02:14;;;;;;;9.17;8.50;;;32.70;53.60;;;;;;10517718;28;20223;-82
2022/07/25 15:07:19;;;;;;;8.90;8.20;;;32.50;55.30;;;;;;10505239;28;20738;-81
2022/07/25 15:12:21;;;;;;;10.37;9.60;;;32.50;54.20;;;;;;10528525;28;20223;-81
2022/07/25 15:17:25;;;;;;;9.33;8.43;;;32.40;52.90;;;;;;10510181;28;20201;-82
2022/07/25 15:22:27;;;;;;;9.47;8.83;;;32.30;54.70;;;;;;10510519;28;20236;-82
2022/07/25 15:27:29;;;;;;;9.93;9.07;;;32.30;54.00;;;;;;10514702;28;20204;-83
2022/07/25 15:32:33;;;;;;;11.77;10.83;;;32.40;53.70;;;;;;10494872;28;20239;-82
2022/07/25 15:37:36;;;;;;;11.63;8.70;;;32.40;54.10;;;;;;10523075;28;20193;-82
2022/07/25 15:42:39;;;;;;;10.27;9.27;;;32.40;55.10;;;;;;10503348;28;20295;-83
2022/07/25 15:47:42;;;;;;;11.23;9.53;;;32.30;56.60;;;;;;10501688;28;20200;-83
2022/07/25 15:52:44;;;;;;;10.57;9.67;;;32.10;56.40;;;;;;10498588;28;20642;-84
2022/07/25 15:57:47;;;;;;;11.07;10.10;;;31.90;56.60;;;;;;10504836;28;20207;-84
2022/07/25 16:02:50;;;;;;;9.93;9.23;;;31.70;57.30;;;;;;10506501;28;20247;-84
2022/07/25 16:07:52;;;;;;;10.33;9.50;;;31.40;58.00;;;;;;10507671;28;20280;-84
2022/07/25 16:12:54;;;;;;;10.57;9.67;;;31.30;58.30;;;;;;10492632;28;20226;-83
2022/07/25 16:18:13;;;;;;;9.40;8.70;;;31.30;58.70;;;;;;10504230;28;20194;-83
2022/07/25 16:23:15;;;;;;;11.10;10.30;;;31.20;58.10;;;;;;10480618;28;20288;-83
2022/07/25 16:28:17;;;;;;;12.50;10.53;;;31.10;57.80;;;;;;10501578;28;20206;-82
2022/07/25 16:33:21;;;;;;;10.70;9.90;;;31.00;56.90;;;;;;10498739;28;20235;-83
2022/07/25 16:38:24;;;;;;;9.13;8.53;;;31.00;56.80;;;;;;10517461;28;20299;-83
2022/07/25 16:43:26;;;;;;;9.67;8.87;;;31.20;56.60;;;;;;10509958;28;20334;-83
2022/07/25 16:48:36;;;;;;;9.70;9.00;;;31.30;56.20;;;;;;10514492;28;20203;-83
2022/07/25 16:53:41;;;;;;;9.70;9.00;;;31.30;56.70;;;;;;10517325;28;20316;-83
2022/07/25 16:58:45;;;;;;;10.00;9.10;;;31.20;56.30;;;;;;10506143;28;20246;-83
2022/07/25 17:03:49;;;;;;;10.10;9.50;;;31.10;55.70;;;;;;10502514;28;20233;-83
2022/07/25 17:08:57;;;;;;;9.17;8.47;;;31.00;56.30;;;;;;10512370;28;20214;-83
2022/07/25 17:14:00;;;;;;;9.00;8.40;;;31.10;56.90;;;;;;10522068;28;20595;-83
2022/07/25 17:19:03;;;;;;;8.53;7.90;;;31.30;56.30;;;;;;10506905;28;20209;-83
2022/07/25 17:24:06;;;;;;;9.00;8.40;;;31.40;56.90;;;;;;10504158;28;20230;-83
2022/07/25 17:29:09;;;;;;;9.00;8.20;;;31.40;57.70;;;;;;10500801;28;20245;-83
2022/07/25 17:34:12;;;;;;;9.00;8.30;;;31.30;56.50;;;;;;10500172;28;20220;-83
2022/07/25 17:39:14;;;;;;;9.30;8.60;;;31.20;56.80;;;;;;10521348;28;20244;-83
2022/07/25 17:44:16;;;;;;;9.30;8.70;;;31.00;57.10;;;;;;10503104;28;20211;-82
2022/07/25 17:49:20;;;;;;;9.00;8.20;;;31.00;57.30;;;;;;10510559;28;20212;-82
2022/07/25 17:54:22;;;;;;;10.10;9.00;;;30.90;57.30;;;;;;10515659;28;20266;-83
2022/07/25 17:59:24;;;;;;;9.13;8.43;;;30.80;58.10;;;;;;10528920;28;20349;-82
2022/07/25 18:04:28;;;;;;;9.00;8.30;;;30.70;58.00;;;;;;10513088;28;20860;-83
2022/07/25 18:09:30;;;;;;;9.43;8.63;;;30.50;58.20;;;;;;10532142;28;20227;-83
2022/07/25 18:14:33;;;;;;;8.90;8.30;;;30.40;57.60;;;;;;10526511;28;20204;-83
2022/07/25 18:19:37;;;;;;;8.53;7.87;;;30.30;57.30;;;;;;10496643;28;20227;-83
2022/07/25 18:24:39;;;;;;;8.67;7.77;;;30.10;58.20;;;;;;10525688;28;20275;-83
2022/07/25 18:29:42;;;;;;;8.97;8.10;;;30.00;58.10;;;;;;10523607;28;20220;-83
2022/07/25 18:34:45;;;;;;;11.73;7.90;;;29.90;58.60;;;;;;10520855;28;20211;-83
2022/07/25 18:39:49;;;;;;;8.27;7.40;;;29.70;58.60;;;;;;10510376;28;20250;-83
2022/07/25 18:44:52;;;;;;;9.30;8.07;;;29.60;58.60;;;;;;10509738;28;20267;-83
2022/07/25 18:49:55;;;;;;;8.00;7.40;;;29.50;58.60;;;;;;10523231;28;20208;-82
2022/07/25 18:54:58;;;;;;;8.13;7.40;;;29.30;59.30;;;;;;10535010;28;20192;-83
2022/07/25 19:00:00;;;;;;;7.90;7.30;;;29.20;58.30;;;;;;10543406;28;20222;-84
2022/07/25 19:05:05;;;;;;;9.93;7.00;;;29.10;58.10;;;;;;10498164;28;20207;-84
2022/07/25 19:10:08;;;;;;;9.87;6.97;;;29.00;57.50;;;;;;10517666;28;20245;-83
2022/07/25 19:15:13;;;;;;;7.83;6.80;;;28.80;57.60;;;;;;10523354;28;20215;-85
2022/07/25 19:20:16;;;;;;;7.13;6.53;;;28.70;58.20;;;;;;10536876;28;20219;-83
2022/07/25 19:25:19;;;;;;;6.83;6.30;;;28.60;57.00;;;;;;10519933;28;20633;-84
2022/07/25 19:30:21;;;;;;;6.63;6.13;;;28.50;56.00;;;;;;10532895;28;20599;-83
2022/07/25 19:35:25;;;;;;;7.57;5.93;;;28.40;57.20;;;;;;10517148;28;20212;-84
2022/07/25 19:40:27;;;;;;;7.30;6.60;;;28.30;57.30;;;;;;10527295;28;20476;-84
2022/07/25 19:45:31;;;;;;;6.40;5.70;;;28.20;58.00;;;;;;10521647;28;20204;-83
2022/07/25 19:50:34;;;;;;;5.67;5.37;;;28.20;57.80;;;;;;10535664;28;20224;-83
2022/07/25 19:55:37;;;;;;;6.70;6.10;;;28.10;58.30;;;;;;10516737;28;20215;-84
2022/07/25 20:00:39;;;;;;;5.63;5.20;;;28.00;58.10;;;;;;10515366;28;20225;-83
2022/07/25 20:05:43;;;;;;;5.47;5.17;;;27.90;59.00;;;;;;10517581;28;20193;-83
2022/07/25 20:10:51;;;;;;;6.20;5.60;;;27.90;60.00;;;;;;10520202;28;20227;-83
2022/07/25 20:16:05;;;;;;;5.63;5.13;;;27.80;59.10;;;;;;10534455;28;20209;-82
2022/07/25 20:21:13;;;;;;;5.97;5.50;;;27.80;58.30;;;;;;10510316;28;20278;-84
2022/07/25 20:26:15;;;;;;;6.47;6.07;;;27.70;58.90;;;;;;10509713;28;20212;-84
2022/07/25 20:31:20;;;;;;;5.93;5.43;;;27.60;59.00;;;;;;10522187;28;20299;-84
2022/07/25 20:36:24;;;;;;;4.70;4.40;;;27.50;62.20;;;;;;10525465;28;20700;-84
2022/07/25 20:41:26;;;;;;;6.77;5.10;;;27.50;60.40;;;;;;10515434;28;20232;-83
2022/07/25 20:46:34;;;;;;;6.37;5.93;;;27.40;60.00;;;;;;10518706;28;20253;-83
2022/07/25 20:51:41;;;;;;;5.80;5.00;;;27.40;60.00;;;;;;10520448;28;20244;-84
2022/07/25 20:56:44;;;;;;;11.10;4.87;;;27.30;63.40;;;;;;10500841;28;20196;-83
2022/07/25 21:01:46;;;;;;;5.90;5.30;;;27.20;61.60;;;;;;10498917;28;20220;-84
2022/07/25 21:06:49;;;;;;;4.87;4.33;;;27.10;61.80;;;;;;10507547;28;20205;-82
2022/07/25 21:11:52;;;;;;;5.97;5.50;;;27.10;62.40;;;;;;10501371;28;20213;-83
2022/07/25 21:16:54;;;;;;;5.50;5.10;;;27.10;65.30;;;;;;10516009;28;20201;-83
2022/07/25 21:21:58;;;;;;;5.10;4.70;;;27.00;61.20;;;;;;10509703;28;20228;-83
2022/07/25 21:27:00;;;;;;;4.80;4.37;;;27.00;62.90;;;;;;10507485;28;20642;-83
2022/07/25 21:32:06;;;;;;;5.20;4.60;;;26.90;63.90;;;;;;10499194;28;20212;-83
2022/07/25 21:37:10;;;;;;;6.90;4.67;;;26.80;62.60;;;;;;10523757;28;20212;-83
2022/07/25 21:42:12;;;;;;;4.67;4.37;;;26.80;60.70;;;;;;10494022;28;20315;-82
2022/07/25 21:47:14;;;;;;;5.30;4.90;;;26.80;61.50;;;;;;10489488;28;20209;-82
2022/07/25 21:52:18;;;;;;;4.63;4.40;;;26.70;60.90;;;;;;10505360;28;20545;-82
2022/07/25 21:57:20;;;;;;;4.63;4.33;;;26.70;61.10;;;;;;10530824;28;20728;-83
2022/07/25 22:02:22;;;;;;;5.10;4.60;;;26.60;63.00;;;;;;10512599;28;20799;-83
2022/07/25 22:07:26;;;;;;;4.60;4.40;;;26.60;60.00;;;;;;10513252;28;20286;-83
2022/07/25 22:12:28;;;;;;;5.37;4.83;;;26.60;61.10;;;;;;10501475;28;20798;-83
2022/07/25 22:17:30;;;;;;;5.47;5.00;;;26.50;59.50;;;;;;10526094;28;20222;-82
2022/07/25 22:22:33;;;;;;;5.00;4.70;;;26.50;59.30;;;;;;10511898;28;20250;-82
2022/07/25 22:27:35;;;;;;;5.70;4.30;;;26.40;61.60;;;;;;10504481;28;20200;-82
2022/07/25 22:32:37;;;;;;;5.37;4.87;;;26.40;60.60;;;;;;10503252;28;20259;-83
2022/07/25 22:37:41;;;;;;;7.60;5.00;;;26.40;63.70;;;;;;10518513;28;20239;-82
2022/07/25 22:42:43;;;;;;;5.03;4.67;;;26.40;61.50;;;;;;10503568;28;20231;-82
2022/07/25 22:47:45;;;;;;;4.70;4.40;;;26.30;62.40;;;;;;10529619;28;20654;-82
2022/07/25 22:52:48;;;;;;;5.43;4.87;;;26.30;63.70;;;;;;10513028;28;20847;-83
2022/07/25 22:57:50;;;;;;;5.37;4.83;;;26.30;65.40;;;;;;10521918;28;20286;-83
2022/07/25 23:02:53;;;;;;;5.10;4.77;;;26.20;65.50;;;;;;10512081;28;20238;-82
2022/07/25 23:07:56;;;;;;;6.97;4.07;;;26.20;65.00;;;;;;10524663;28;20671;-83
2022/07/25 23:12:58;;;;;;;5.60;4.50;;;26.20;65.30;;;;;;10520376;28;20714;-82
2022/07/25 23:18:00;;;;;;;4.70;4.30;;;26.20;65.30;;;;;;10517080;28;20228;-82
2022/07/25 23:23:04;;;;;;;4.63;4.20;;;26.10;67.80;;;;;;10517633;28;20299;-83
2022/07/25 23:28:06;;;;;;;5.17;4.60;;;26.10;65.50;;;;;;10518556;28;20577;-83
2022/07/25 23:33:09;;;;;;;5.43;4.40;;;26.00;64.90;;;;;;10523732;28;20216;-83
2022/07/25 23:38:12;;;;;;;4.37;3.90;;;26.00;65.30;;;;;;10526917;28;20211;-81
2022/07/25 23:43:15;;;;;;;5.47;5.07;;;26.00;65.60;;;;;;10536493;28;20224;-81
2022/07/25 23:48:17;;;;;;;5.00;4.70;;;26.00;65.70;;;;;;10542440;28;20215;-81
2022/07/25 23:53:20;;;;;;;4.93;3.60;;;26.00;62.80;;;;;;10538477;28;20216;-81
2022/07/25 23:58:23;;;;;;;4.43;4.10;;;25.90;65.60;;;;;;10538890;28;20196;-80
